Terminal Aerodrome Forecast
Issued by NWS

Home | Current Version | Previous Version | Text Only | Print | Product List | Glossary On
Versions: 1 2 3 4 5 6 7 8 9 10 11 12 13 14 15 16 17 18 19 20 21 22 23 24
000
FTUS45 KLKN 271120
TAFWMC
TAF
KWMC 271120Z 2712/2812 13006KT P6SM VCSH SCT060 BKN080
     FM271500 17006KT P6SM -RA SCT040 BKN060
     FM271800 19006KT 5SM -RA BR SCT010 BKN025
     FM280300 20006KT P6SM VCSH SCT025 BKN040=

USA.gov is the U.S. government's official web portal to all federal, state and local government web resources and services.